Time;durP1;ratioP1;P1;durP2;ratioP2;P2;SDS_P1;SDS_P2;PMS_P1;PMS_P2;Temp;Humidity;BMP_temperature;BMP_pressure;BME280_temperature;BME280_humidity;BME280_pressure;Samples;Min_cycle;Max_cycle;Signal;HPM_P1;HPM_P2
2021/08/01 00:00:43;;;;;;;;;3.25;3.00;;;;;21.10;50.12;100756.66;5001344;28;47042;-68
2021/08/01 00:03:09;;;;;;;;;3.25;3.25;;;;;21.09;49.92;100751.34;5002183;28;45546;-68
2021/08/01 00:05:34;;;;;;;;;4.50;4.00;;;;;20.93;49.47;100721.78;5002871;28;45317;-68
2021/08/01 00:08:00;;;;;;;;;5.00;4.00;;;;;21.01;50.11;100746.47;5002595;28;45478;-68
2021/08/01 00:10:25;;;;;;;;;4.75;4.75;;;;;20.88;49.76;100715.84;5002400;28;45386;-68
2021/08/01 00:12:51;;;;;;;;;3.75;3.75;;;;;20.91;50.39;100732.78;5002101;28;45509;-67
2021/08/01 00:15:16;;;;;;;;;4.00;4.00;;;;;21.01;50.30;100751.91;5002586;28;45466;-68
2021/08/01 00:17:41;;;;;;;;;5.00;5.00;;;;;20.90;49.90;100741.88;5002395;28;45406;-68
2021/08/01 00:20:07;;;;;;;;;2.25;2.25;;;;;20.84;50.46;100731.50;5002388;28;46245;-68
2021/08/01 00:22:33;;;;;;;;;3.50;3.50;;;;;20.81;50.22;100742.56;5002021;28;45696;-68
2021/08/01 00:24:58;;;;;;;;;3.50;3.50;;;;;20.87;50.04;100749.41;5002404;28;45443;-68
2021/08/01 00:27:23;;;;;;;;;3.00;3.00;;;;;20.74;50.24;100733.19;5002098;28;45514;-68
2021/08/01 00:29:49;;;;;;;;;4.00;3.25;;;;;20.77;50.25;100734.81;5002289;28;46071;-67
2021/08/01 00:32:14;;;;;;;;;3.00;3.00;;;;;20.77;50.48;100735.66;5002048;28;45290;-68
2021/08/01 00:34:39;;;;;;;;;3.00;3.00;;;;;20.85;50.33;100760.38;5002123;28;45363;-68
2021/08/01 00:37:05;;;;;;;;;4.50;4.50;;;;;20.84;50.31;100761.34;5002268;28;45312;-68
2021/08/01 00:39:30;;;;;;;;;4.75;4.75;;;;;20.84;50.35;100761.34;5002024;28;46310;-68
2021/08/01 00:41:56;;;;;;;;;3.50;3.00;;;;;20.81;50.37;100758.84;5001778;28;45336;-68
2021/08/01 00:44:22;;;;;;;;;3.75;3.75;;;;;20.71;50.45;100750.56;5002049;28;45301;-68
2021/08/01 00:46:48;;;;;;;;;4.00;4.00;;;;;20.69;50.47;100743.50;5001953;28;45160;-68
2021/08/01 00:49:14;;;;;;;;;3.00;3.00;;;;;20.77;50.70;100759.22;5000548;28;47271;-68
2021/08/01 00:51:40;;;;;;;;;4.75;4.00;;;;;20.67;50.58;100749.03;5000641;28;45494;-68
2021/08/01 00:54:05;;;;;;;;;2.25;2.00;;;;;20.73;51.10;100767.59;4999438;28;45453;-67
2021/08/01 00:56:31;;;;;;;;;4.75;2.25;;;;;20.63;50.73;100741.25;5001528;28;45514;-68
2021/08/01 00:58:56;;;;;;;;;3.75;3.75;;;;;20.67;50.88;100757.19;5001767;28;45506;-68
2021/08/01 01:01:26;;;;;;;;;3.00;3.00;;;;;20.57;51.00;100749.81;5001745;28;45437;-68
2021/08/01 01:04:20;;;;;;;;;4.25;3.00;;;;;20.57;50.86;100739.84;5000282;28;45526;-67
2021/08/01 01:06:45;;;;;;;;;3.00;3.00;;;;;20.67;50.86;100765.31;4991579;28;45362;-68
2021/08/01 01:09:21;;;;;;;;;5.50;3.00;;;;;20.60;50.84;100755.00;5001434;28;45494;-67
2021/08/01 01:11:51;;;;;;;;;4.25;3.50;;;;;20.66;51.03;100760.84;5001351;28;45169;-67
2021/08/01 01:14:22;;;;;;;;;5.25;4.00;;;;;20.55;50.77;100753.50;5001700;28;45405;-68
2021/08/01 01:16:56;;;;;;;;;4.25;4.25;;;;;20.51;51.31;100752.03;5001579;28;45442;-68
2021/08/01 01:19:43;;;;;;;;;4.50;4.25;;;;;20.65;50.90;100780.00;4988808;28;46181;-68
2021/08/01 01:22:20;;;;;;;;;2.75;2.00;;;;;20.56;50.79;100762.50;5001110;28;45497;-68
2021/08/01 01:24:52;;;;;;;;;3.00;3.00;;;;;20.62;50.98;100770.19;5001450;28;45390;-68
2021/08/01 01:27:30;;;;;;;;;3.00;3.00;;;;;20.56;51.35;100759.78;5001182;28;45334;-68
2021/08/01 01:30:01;;;;;;;;;4.25;4.25;;;;;20.54;50.89;100756.31;5001342;28;45554;-67
2021/08/01 01:32:41;;;;;;;;;4.00;4.00;;;;;20.44;50.83;100742.59;5001284;28;45432;-67
2021/08/01 01:35:16;;;;;;;;;2.75;2.75;;;;;20.52;51.19;100763.72;5001354;28;45382;-67
2021/08/01 01:37:44;;;;;;;;;4.00;3.00;;;;;20.54;51.32;100765.31;5001344;28;45478;-67
2021/08/01 01:40:11;;;;;;;;;3.25;2.75;;;;;20.53;51.47;100763.59;5001133;28;46570;-67
2021/08/01 01:42:38;;;;;;;;;1.75;1.75;;;;;20.58;51.46;100778.66;5000917;28;45525;-67
2021/08/01 01:45:04;;;;;;;;;3.25;2.25;;;;;20.45;51.43;100759.75;4999724;28;45351;-67
2021/08/01 01:47:31;;;;;;;;;1.00;1.00;;;;;20.51;51.11;100765.56;5001030;28;45245;-67
2021/08/01 01:49:59;;;;;;;;;3.00;3.00;;;;;20.58;51.32;100776.84;5001072;28;45486;-67
2021/08/01 01:52:27;;;;;;;;;2.25;2.25;;;;;20.51;51.27;100764.69;5001001;28;45327;-67
2021/08/01 01:54:53;;;;;;;;;2.50;2.00;;;;;20.46;51.46;100748.75;5000879;28;45209;-67
2021/08/01 01:57:19;;;;;;;;;3.00;3.00;;;;;20.55;51.53;100758.94;5000709;28;45388;-67
2021/08/01 01:59:45;;;;;;;;;3.25;3.25;;;;;20.57;51.40;100761.53;5000708;28;45407;-67
2021/08/01 02:02:10;;;;;;;;;4.50;2.00;;;;;20.36;51.42;100731.44;5000867;28;45316;-67
2021/08/01 02:04:36;;;;;;;;;2.75;2.75;;;;;20.55;51.30;100755.34;5000265;28;45344;-67
2021/08/01 02:07:04;;;;;;;;;3.00;3.00;;;;;20.51;51.42;100753.84;4999673;28;45379;-67
2021/08/01 02:09:47;;;;;;;;;3.00;3.00;;;;;20.43;51.30;100742.69;5000398;28;45529;-67
2021/08/01 02:12:18;;;;;;;;;1.75;1.75;;;;;20.55;51.50;100758.06;5000229;28;45503;-67
2021/08/01 02:15:07;;;;;;;;;2.75;2.75;;;;;20.55;51.63;100760.78;5001114;28;45508;-67
2021/08/01 02:17:38;;;;;;;;;2.25;2.25;;;;;20.53;51.29;100762.72;5000463;28;45514;-67
2021/08/01 02:20:07;;;;;;;;;2.25;2.25;;;;;20.54;51.54;100759.91;5000833;28;45532;-67
2021/08/01 02:22:32;;;;;;;;;3.25;2.75;;;;;20.48;51.58;100754.94;5000265;28;45473;-67
2021/08/01 02:25:00;;;;;;;;;1.75;1.75;;;;;20.49;51.77;100750.38;5000734;28;45450;-67
2021/08/01 02:27:29;;;;;;;;;3.25;1.50;;;;;20.36;51.29;100735.03;4999041;28;45614;-67
2021/08/01 02:29:55;;;;;;;;;2.00;2.00;;;;;20.39;51.83;100741.19;5000270;28;46156;-67
2021/08/01 02:32:22;;;;;;;;;4.25;2.00;;;;;20.41;51.91;100741.94;5000253;28;45307;-67
2021/08/01 02:34:47;;;;;;;;;4.00;3.00;;;;;20.28;51.37;100721.19;5000595;28;45430;-67
2021/08/01 02:37:15;;;;;;;;;3.00;2.00;;;;;20.23;51.93;100717.94;4987422;28;45463;-67
2021/08/01 02:39:42;;;;;;;;;3.50;2.50;;;;;20.10;51.49;100684.59;5000260;28;46116;-66
2021/08/01 02:42:10;;;;;;;;;2.75;2.75;;;;;20.34;51.18;100726.13;5000105;28;45289;-67
2021/08/01 02:44:37;;;;;;;;;1.25;1.25;;;;;20.34;51.91;100728.84;4999049;28;45407;-67
2021/08/01 02:47:06;;;;;;;;;2.00;2.00;;;;;20.34;51.86;100727.97;5000125;28;45293;-67
2021/08/01 02:49:37;;;;;;;;;4.50;3.00;;;;;20.47;51.71;100739.66;5000095;28;46678;-67
2021/08/01 02:52:04;;;;;;;;;3.25;3.00;;;;;20.45;51.55;100741.63;4988007;28;45544;-67
2021/08/01 02:54:32;;;;;;;;;2.25;2.25;;;;;20.31;52.09;100720.97;5000017;28;45592;-67
2021/08/01 02:57:01;;;;;;;;;2.00;2.00;;;;;20.42;51.67;100741.84;4998662;28;45509;-67
2021/08/01 02:59:30;;;;;;;;;1.00;1.00;;;;;20.32;51.63;100725.38;4997438;28;46046;-67
2021/08/01 03:01:57;;;;;;;;;1.50;1.50;;;;;20.36;51.60;100732.31;4999021;28;45253;-67
2021/08/01 03:04:26;;;;;;;;;1.75;1.75;;;;;20.39;51.76;100738.50;4999853;28;45248;-67
2021/08/01 03:06:53;;;;;;;;;2.75;2.75;;;;;20.46;52.01;100756.88;5000132;28;45249;-66
2021/08/01 03:09:19;;;;;;;;;4.25;2.00;;;;;20.32;51.90;100733.50;4999688;28;46782;-67
2021/08/01 03:11:44;;;;;;;;;2.50;2.50;;;;;20.39;51.68;100746.63;4999778;28;45430;-67
2021/08/01 03:14:12;;;;;;;;;4.00;2.50;;;;;20.22;51.79;100718.06;4999903;28;45209;-67
2021/08/01 03:16:37;;;;;;;;;3.50;3.00;;;;;20.31;51.99;100747.19;4999912;28;45264;-67
2021/08/01 03:19:03;;;;;;;;;3.25;3.25;;;;;20.32;52.04;100746.22;5003192;28;45236;-67
2021/08/01 03:21:28;;;;;;;;;3.00;2.75;;;;;20.35;52.44;100756.84;5002255;28;45517;-67
2021/08/01 03:23:54;;;;;;;;;4.50;3.00;;;;;20.29;52.25;100751.84;5003213;28;45347;-67
2021/08/01 03:26:19;;;;;;;;;4.75;3.75;;;;;20.14;52.32;100730.28;5003325;28;45316;-67
2021/08/01 03:28:44;;;;;;;;;4.25;2.50;;;;;20.13;52.23;100733.13;5003028;28;46497;-67
2021/08/01 03:31:10;;;;;;;;;3.00;3.00;;;;;19.97;51.94;100715.28;5001995;28;45438;-67
2021/08/01 03:33:35;;;;;;;;;2.00;2.00;;;;;20.17;52.38;100742.78;5002912;28;45372;-66
2021/08/01 03:36:00;;;;;;;;;2.25;2.25;;;;;19.88;52.54;100701.53;5003351;28;45367;-66
2021/08/01 03:38:26;;;;;;;;;2.00;2.00;;;;;20.04;52.48;100725.66;5001748;28;47349;-67
2021/08/01 03:40:51;;;;;;;;;2.00;2.00;;;;;19.89;52.45;100701.41;5003151;28;45326;-67
2021/08/01 03:43:17;;;;;;;;;3.25;3.25;;;;;20.12;52.56;100745.81;5002913;28;45311;-67
2021/08/01 03:45:43;;;;;;;;;2.00;2.00;;;;;20.04;52.52;100734.66;5002924;28;45550;-67
2021/08/01 03:48:08;;;;;;;;;3.00;3.00;;;;;20.02;52.23;100727.63;5002822;28;46378;-67
2021/08/01 03:50:33;;;;;;;;;2.50;2.50;;;;;20.13;52.51;100746.66;5003012;28;45365;-67
2021/08/01 03:52:59;;;;;;;;;2.50;2.50;;;;;20.01;52.64;100729.44;5003027;28;45282;-67
2021/08/01 03:55:24;;;;;;;;;2.00;2.00;;;;;19.87;52.52;100708.78;5000778;28;46020;-67
2021/08/01 03:57:49;;;;;;;;;3.00;1.00;;;;;19.89;52.64;100712.25;5000252;28;45567;-67
2021/08/01 04:00:15;;;;;;;;;3.50;3.00;;;;;20.02;52.61;100735.75;5001779;28;45367;-67
2021/08/01 04:02:40;;;;;;;;;2.25;2.25;;;;;20.07;52.69;100744.41;5002346;28;45372;-66
2021/08/01 04:05:06;;;;;;;;;4.50;3.00;;;;;19.95;52.63;100728.06;5001043;28;45315;-67
2021/08/01 04:07:32;;;;;;;;;4.00;3.00;;;;;20.05;52.57;100749.09;5002491;28;46561;-67
2021/08/01 04:09:58;;;;;;;;;3.75;3.25;;;;;20.03;52.61;100746.50;5002325;28;45276;-67
2021/08/01 04:12:23;;;;;;;;;3.00;3.00;;;;;19.76;52.77;100701.44;5002457;28;45206;-67
2021/08/01 04:14:49;;;;;;;;;2.00;2.00;;;;;20.01;52.77;100743.00;5002608;28;45402;-67
2021/08/01 04:17:18;;;;;;;;;2.50;2.50;;;;;19.94;52.64;100734.44;5002172;28;46172;-67
2021/08/01 04:19:46;;;;;;;;;3.25;3.00;;;;;19.90;52.64;100735.66;5002549;28;45407;-66
2021/08/01 04:22:15;;;;;;;;;2.00;2.00;;;;;19.89;52.91;100738.47;5002260;28;45309;-66
2021/08/01 04:24:41;;;;;;;;;2.00;2.00;;;;;19.94;52.80;100741.72;5002389;28;45818;-67
2021/08/01 04:27:06;;;;;;;;;3.50;3.50;;;;;19.65;52.78;100703.16;5001962;28;46434;-67
2021/08/01 04:29:32;;;;;;;;;1.75;1.75;;;;;19.70;53.03;100711.81;5002365;28;45726;-67
2021/08/01 04:31:58;;;;;;;;;4.00;2.50;;;;;19.83;53.01;100737.09;5002497;28;45371;-67
2021/08/01 04:34:24;;;;;;;;;5.25;3.00;;;;;19.78;53.21;100734.69;5002045;28;45484;-67
2021/08/01 04:36:49;;;;;;;;;2.50;2.00;;;;;19.73;53.32;100722.41;5002177;28;45247;-67
2021/08/01 04:39:14;;;;;;;;;5.00;2.00;;;;;19.78;52.69;100737.41;5000881;28;45258;-66
2021/08/01 04:41:40;;;;;;;;;3.50;2.00;;;;;19.71;52.79;100727.06;5002029;28;45255;-67
2021/08/01 04:44:06;;;;;;;;;3.00;3.00;;;;;19.80;52.93;100749.00;5000741;28;45540;-67
2021/08/01 04:46:32;;;;;;;;;2.75;2.75;;;;;19.69;53.27;100735.31;5001807;28;46143;-66
2021/08/01 04:48:58;;;;;;;;;3.75;3.00;;;;;19.73;52.95;100742.25;5001975;28;45260;-67
2021/08/01 04:51:23;;;;;;;;;2.00;2.00;;;;;19.63;53.69;100725.78;5002109;28;45293;-67
2021/08/01 04:53:49;;;;;;;;;1.50;1.50;;;;;19.77;53.23;100753.75;5001838;28;45534;-67
2021/08/01 04:56:15;;;;;;;;;3.00;2.00;;;;;19.61;53.19;100727.75;5001528;28;46247;-67
2021/08/01 04:58:40;;;;;;;;;2.00;2.00;;;;;19.65;53.17;100738.38;5001881;28;45449;-67
2021/08/01 05:01:17;;;;;;;;;2.75;2.75;;;;;19.58;53.31;100727.09;5001948;28;45325;-67
2021/08/01 05:03:43;;;;;;;;;2.25;2.25;;;;;19.57;53.61;100722.66;5001511;28;45340;-67
2021/08/01 05:06:10;;;;;;;;;2.25;2.25;;;;;19.54;53.78;100723.72;5001659;28;45796;-67
2021/08/01 05:08:35;;;;;;;;;1.75;1.75;;;;;19.38;53.91;100694.16;5001666;28;45564;-67
2021/08/01 05:11:01;;;;;;;;;2.75;2.00;;;;;19.63;53.88;100735.75;5001395;28;45288;-67
2021/08/01 05:13:26;;;;;;;;;2.25;2.00;;;;;19.69;54.29;100754.25;5001627;28;45545;-67
2021/08/01 05:15:51;;;;;;;;;3.50;3.00;;;;;19.65;54.06;100752.75;5001374;28;46439;-67
2021/08/01 05:18:17;;;;;;;;;2.25;2.25;;;;;19.63;54.27;100752.00;5001486;28;45246;-67
2021/08/01 05:20:43;;;;;;;;;3.00;2.00;;;;;19.60;54.08;100744.94;5001543;28;45219;-67
2021/08/01 05:23:09;;;;;;;;;1.50;1.50;;;;;19.52;53.81;100733.78;5000022;28;45434;-67
2021/08/01 05:25:35;;;;;;;;;2.00;2.00;;;;;19.52;54.20;100736.50;5001238;28;45689;-67
2021/08/01 05:28:00;;;;;;;;;2.25;2.25;;;;;19.63;54.37;100749.28;5001130;28;45457;-67
2021/08/01 05:30:26;;;;;;;;;2.00;2.00;;;;;19.58;54.26;100733.38;5001560;28;45814;-67
2021/08/01 05:32:51;;;;;;;;;3.00;1.75;;;;;19.71;54.38;100752.34;5001222;28;45511;-67
2021/08/01 05:35:17;;;;;;;;;3.50;2.75;;;;;19.58;54.52;100738.78;5001075;28;45300;-67
2021/08/01 05:37:42;;;;;;;;;2.00;2.00;;;;;19.63;54.21;100743.88;5001369;28;45312;-67
2021/08/01 05:40:10;;;;;;;;;3.00;1.50;;;;;19.63;54.34;100742.03;5000507;28;45358;-67
2021/08/01 05:42:36;;;;;;;;;2.75;2.50;;;;;19.70;54.15;100750.59;5000909;28;45495;-67
2021/08/01 05:45:01;;;;;;;;;1.75;1.50;;;;;19.67;53.86;100739.13;4999608;28;48368;-67
2021/08/01 05:47:26;;;;;;;;;2.00;2.00;;;;;19.72;54.01;100747.78;4999842;28;45326;-67
2021/08/01 05:49:52;;;;;;;;;2.75;2.00;;;;;19.73;54.01;100758.50;5001205;28;45229;-67
2021/08/01 05:52:17;;;;;;;;;2.00;2.00;;;;;19.63;54.07;100741.19;5001095;28;45277;-67
2021/08/01 05:54:43;;;;;;;;;2.25;2.25;;;;;19.59;54.10;100734.22;4999364;28;48400;-67
2021/08/01 05:57:08;;;;;;;;;1.75;1.75;;;;;19.68;54.15;100752.53;4999622;28;45216;-67
2021/08/01 05:59:34;;;;;;;;;4.00;2.25;;;;;19.62;54.34;100742.13;4999768;28;45675;-67
2021/08/01 06:01:59;;;;;;;;;4.00;2.00;;;;;19.65;54.66;100757.31;5000934;28;45451;-67
2021/08/01 06:04:24;;;;;;;;;4.25;3.00;;;;;19.68;54.56;100765.19;4999136;28;47102;-67
2021/08/01 06:06:50;;;;;;;;;3.00;3.00;;;;;19.59;54.42;100750.47;5000941;28;45442;-67
2021/08/01 06:09:15;;;;;;;;;2.00;1.50;;;;;19.56;54.46;100750.69;5000784;28;45244;-67
2021/08/01 06:11:40;;;;;;;;;2.25;1.00;;;;;19.56;54.57;100750.69;4995968;28;45261;-67
2021/08/01 06:14:06;;;;;;;;;2.00;2.00;;;;;19.65;55.04;100776.28;4997211;28;45452;-67
2021/08/01 06:16:31;;;;;;;;;4.50;2.00;;;;;19.65;54.94;100768.16;5000756;28;45243;-67
2021/08/01 06:18:56;;;;;;;;;3.00;2.00;;;;;19.28;54.74;100711.13;5000626;28;45397;-67
2021/08/01 06:21:22;;;;;;;;;1.00;1.00;;;;;19.65;54.79;100777.13;5000729;28;45412;-66
2021/08/01 06:23:52;;;;;;;;;2.00;2.00;;;;;19.61;54.93;100772.88;4998769;28;47148;-66
2021/08/01 06:26:22;;;;;;;;;2.00;1.00;;;;;19.61;54.80;100776.47;5000468;28;45392;-66
2021/08/01 06:28:48;;;;;;;;;2.25;1.75;;;;;19.65;54.96;100777.13;4999306;28;45396;-67
2021/08/01 06:31:14;;;;;;;;;3.25;1.50;;;;;19.59;54.80;100772.13;5000717;28;45340;-66
2021/08/01 06:33:40;;;;;;;;;3.00;2.00;;;;;19.56;54.82;100769.63;4998711;28;46930;-66
2021/08/01 06:36:11;;;;;;;;;3.00;2.25;;;;;19.67;54.85;100779.72;5000490;28;45431;-66
2021/08/01 06:38:37;;;;;;;;;3.50;3.50;;;;;19.61;54.93;100772.88;5000385;28;45307;-67
2021/08/01 06:41:03;;;;;;;;;4.00;2.00;;;;;19.58;55.11;100773.97;5000135;28;45404;-66
2021/08/01 06:43:29;;;;;;;;;1.00;1.00;;;;;19.68;55.24;100786.84;5000055;28;45385;-66
2021/08/01 06:45:54;;;;;;;;;2.25;2.25;;;;;19.42;54.84;100752.50;5000404;28;45200;-66
2021/08/01 06:48:20;;;;;;;;;2.25;2.00;;;;;19.53;55.21;100768.03;5000137;28;45183;-67
2021/08/01 06:50:45;;;;;;;;;2.00;2.00;;;;;19.65;55.50;100784.41;4999312;28;45418;-66
2021/08/01 06:53:11;;;;;;;;;2.00;2.00;;;;;19.47;55.30;100756.75;4999820;28;46077;-67
2021/08/01 06:55:36;;;;;;;;;3.50;1.75;;;;;19.67;55.16;100785.16;5000345;28;45398;-66
2021/08/01 06:58:01;;;;;;;;;1.50;1.50;;;;;19.46;54.83;100755.88;4998433;28;45312;-66
2021/08/01 07:00:27;;;;;;;;;4.25;2.00;;;;;19.66;54.73;100784.25;5000159;28;45209;-67
2021/08/01 07:02:53;;;;;;;;;2.00;2.00;;;;;19.72;54.96;100793.81;4999608;28;45193;-66
2021/08/01 07:05:19;;;;;;;;;2.00;2.00;;;;;19.65;54.74;100778.97;5000116;28;45400;-66
2021/08/01 07:07:44;;;;;;;;;2.75;1.50;;;;;19.64;55.05;100769.97;5000148;28;45424;-66
2021/08/01 07:10:10;;;;;;;;;2.50;2.50;;;;;19.80;54.92;100794.19;4999903;28;45438;-67
2021/08/01 07:12:38;;;;;;;;;2.25;2.25;;;;;19.76;54.76;100790.81;4998131;28;48269;-66
2021/08/01 07:15:04;;;;;;;;;2.50;2.50;;;;;19.70;54.62;100779.53;5000026;28;45470;-66
2021/08/01 07:17:30;;;;;;;;;2.00;2.00;;;;;19.82;54.62;100792.22;4998580;28;45296;-67
2021/08/01 07:19:55;;;;;;;;;1.25;1.25;;;;;19.52;54.93;100747.31;4999883;28;45130;-76
2021/08/01 07:22:20;;;;;;;;;2.00;2.00;;;;;19.80;54.89;100795.03;4999493;28;45413;-73
2021/08/01 07:24:46;;;;;;;;;1.00;1.00;;;;;19.92;55.23;100809.56;4999693;28;45273;-72
2021/08/01 07:27:11;;;;;;;;;2.00;2.00;;;;;19.93;55.51;100807.69;4998289;28;45619;-74
2021/08/01 07:29:37;;;;;;;;;2.00;2.00;;;;;19.85;55.00;100788.44;4998515;28;45528;-74
2021/08/01 07:32:03;;;;;;;;;0.75;0.75;;;;;20.00;54.70;100817.16;4999466;28;45316;-75
2021/08/01 07:34:28;;;;;;;;;3.25;3.00;;;;;19.83;54.81;100785.84;4999467;28;45208;-74
2021/08/01 07:36:54;;;;;;;;;1.50;1.50;;;;;19.94;54.42;100804.88;4999969;28;45460;-73
2021/08/01 07:39:19;;;;;;;;;1.00;1.00;;;;;19.86;54.05;100788.31;4999605;28;45340;-74
2021/08/01 07:41:44;;;;;;;;;2.00;2.00;;;;;20.05;54.11;100816.84;4999120;28;46449;-73
2021/08/01 07:44:10;;;;;;;;;2.75;2.00;;;;;19.88;54.42;100786.38;4999460;28;45352;-74
2021/08/01 07:46:35;;;;;;;;;2.00;1.25;;;;;19.93;54.05;100788.75;4999437;28;45375;-73
2021/08/01 07:49:00;;;;;;;;;2.00;2.00;;;;;20.18;53.84;100833.94;4999535;28;45426;-73
2021/08/01 07:51:26;;;;;;;;;4.00;2.00;;;;;19.97;54.40;100807.38;4998111;28;47619;-73
2021/08/01 07:53:51;;;;;;;;;3.00;2.00;;;;;20.18;53.72;100825.81;4997127;28;45397;-73
2021/08/01 07:56:16;;;;;;;;;2.50;1.00;;;;;20.04;53.90;100810.53;4998922;28;45490;-73
2021/08/01 07:58:42;;;;;;;;;1.00;1.00;;;;;20.06;53.71;100805.84;4995401;28;45518;-74
2021/08/01 08:01:07;;;;;;;;;2.00;2.00;;;;;20.12;53.41;100813.56;4999046;28;46018;-74
2021/08/01 08:03:33;;;;;;;;;3.00;3.00;;;;;20.12;53.63;100802.72;5001158;28;45390;-74
2021/08/01 08:05:59;;;;;;;;;3.00;2.75;;;;;20.20;53.51;100821.16;5002336;28;45415;-75
2021/08/01 08:08:24;;;;;;;;;1.75;1.00;;;;;20.30;53.04;100837.63;5001676;28;45214;-75
2021/08/01 08:10:49;;;;;;;;;1.50;1.50;;;;;20.14;52.61;100808.03;5002056;28;45278;-74
2021/08/01 08:13:15;;;;;;;;;2.25;1.00;;;;;20.26;53.05;100830.66;5002409;28;45429;-75
2021/08/01 08:15:40;;;;;;;;;1.00;1.00;;;;;20.12;52.88;100805.44;5002742;28;45297;-74
2021/08/01 08:18:06;;;;;;;;;3.00;1.50;;;;;20.15;53.06;100804.34;5002311;28;45426;-74
2021/08/01 08:20:31;;;;;;;;;1.00;1.00;;;;;20.13;52.96;100807.16;5002508;28;46590;-75
2021/08/01 08:22:56;;;;;;;;;4.75;1.00;;;;;20.12;52.93;100794.59;5002199;28;45386;-74
2021/08/01 08:25:22;;;;;;;;;3.25;1.00;;;;;20.18;53.17;100813.13;5002313;28;45744;-74
2021/08/01 08:27:48;;;;;;;;;0.25;0.25;;;;;20.24;52.86;100817.22;5000860;28;45494;-74
2021/08/01 08:30:13;;;;;;;;;1.00;1.00;;;;;20.13;52.68;100796.34;5001725;28;45344;-74
2021/08/01 08:32:38;;;;;;;;;2.50;2.00;;;;;20.48;52.83;100857.09;5000110;28;45334;-75
2021/08/01 08:35:05;;;;;;;;;2.00;2.00;;;;;20.48;52.53;100855.28;5001670;28;45580;-74
2021/08/01 08:37:30;;;;;;;;;1.75;1.75;;;;;20.21;52.50;100811.16;5001197;28;45656;-73
2021/08/01 08:39:56;;;;;;;;;1.75;1.75;;;;;20.35;52.29;100820.03;5000848;28;46305;-73
2021/08/01 08:42:22;;;;;;;;;2.67;2.67;;;;;20.24;52.98;100800.09;4999550;28;45597;-75
2021/08/01 08:44:48;;;;;;;;;2.00;2.00;;;;;20.36;52.82;100818.19;5000248;28;45506;-76
2021/08/01 08:47:18;;;;;;;;;2.00;2.00;;;;;20.54;52.41;100841.25;5000259;28;45435;-76
2021/08/01 08:49:47;;;;;;;;;2.00;2.00;;;;;20.34;52.52;100795.75;5001862;28;45417;-76
2021/08/01 08:52:14;;;;;;;;;2.00;2.00;;;;;20.51;52.21;100805.34;5001684;28;45490;-76
2021/08/01 08:54:45;;;;;;;;;5.50;1.00;;;;;20.62;52.24;100824.44;5000060;28;45408;-76
2021/08/01 08:57:29;;;;;;;;;1.00;1.00;;;;;20.72;52.86;100847.22;5001587;28;45308;-77
2021/08/01 09:00:13;;;;;;;;;2.50;2.00;;;;;20.50;52.01;100799.06;5001688;28;46492;-75
2021/08/01 09:02:39;;;;;;;;;2.25;1.00;;;;;20.54;52.19;100788.88;5001535;28;45316;-74
2021/08/01 09:05:07;;;;;;;;;2.25;1.00;;;;;20.71;52.01;100820.19;5002008;28;45309;-73
2021/08/01 09:07:33;;;;;;;;;4.50;3.00;;;;;20.74;51.67;100817.25;5001792;28;45922;-75
2021/08/01 09:09:58;;;;;;;;;1.75;1.50;;;;;20.72;51.59;100820.09;5000144;28;47146;-75
2021/08/01 09:12:24;;;;;;;;;1.00;1.00;;;;;20.78;51.06;100820.59;5000125;28;45403;-74
2021/08/01 09:15:13;;;;;;;;;1.75;1.75;;;;;21.02;51.34;100842.34;4999286;28;45284;-75
2021/08/01 09:17:39;;;;;;;;;1.50;1.50;;;;;20.94;51.42;100831.19;5000869;28;45466;-76
2021/08/01 09:20:23;;;;;;;;;3.00;1.00;;;;;21.09;50.84;100859.91;4988352;28;46110;-74
2021/08/01 09:23:03;;;;;;;;;1.00;1.00;;;;;20.86;50.36;100812.78;5000890;28;45632;-73
2021/08/01 09:25:32;;;;;;;;;2.00;2.00;;;;;20.87;50.80;100819.94;5001599;28;45349;-73
2021/08/01 09:28:16;;;;;;;;;1.00;1.00;;;;;21.13;50.87;100849.69;5001138;28;45307;-74
2021/08/01 09:31:03;;;;;;;;;3.50;2.00;;;;;20.75;50.96;100788.28;5001193;28;46019;-74
2021/08/01 09:33:31;;;;;;;;;1.75;1.75;;;;;21.16;50.92;100855.72;5000541;28;45436;-73
2021/08/01 09:36:13;;;;;;;;;1.00;1.00;;;;;21.18;50.89;100853.75;5000059;28;45494;-73
2021/08/01 09:39:04;;;;;;;;;4.00;2.25;;;;;21.22;50.86;100849.00;5001318;28;45358;-74
2021/08/01 09:41:33;;;;;;;;;2.00;2.00;;;;;21.25;50.52;100854.16;4988378;28;47435;-73
2021/08/01 09:44:01;;;;;;;;;1.00;1.00;;;;;21.05;50.73;100821.28;5000806;28;45258;-72
2021/08/01 09:46:41;;;;;;;;;2.00;1.25;;;;;21.09;50.54;100825.47;5001024;28;45576;-72
2021/08/01 09:49:19;;;;;;;;;2.25;2.00;;;;;20.86;50.93;100778.34;5001031;28;45150;-73
2021/08/01 09:51:45;;;;;;;;;1.00;1.00;;;;;21.19;50.25;100836.50;4988190;28;45699;-72
2021/08/01 09:54:14;;;;;;;;;3.00;2.25;;;;;21.25;50.41;100835.16;5000398;28;45257;-74
2021/08/01 09:57:00;;;;;;;;;2.00;2.00;;;;;21.14;50.14;100810.72;4999565;28;45375;-72
2021/08/01 09:59:27;;;;;;;;;3.25;2.00;;;;;21.19;50.11;100813.94;4999543;28;45340;-72
2021/08/01 10:01:58;;;;;;;;;1.25;1.25;;;;;21.18;50.63;100804.91;4999533;28;48312;-72
2021/08/01 10:04:28;;;;;;;;;1.00;1.00;;;;;21.43;50.23;100830.19;4998924;28;45467;-72
2021/08/01 10:07:07;;;;;;;;;46.75;34.25;;;;;21.43;52.19;100828.34;4999527;28;45340;-72
2021/08/01 10:09:37;;;;;;;;;3.50;2.00;;;;;21.57;50.60;100838.19;5015222;28;46207;-73
2021/08/01 10:12:04;;;;;;;;;3.00;2.00;;;;;21.39;51.53;100793.41;4998982;28;47271;-72
2021/08/01 10:14:30;;;;;;;;;6.50;5.50;;;;;21.66;50.60;100833.88;4999300;28;45566;-73
2021/08/01 10:16:56;;;;;;;;;1.00;1.00;;;;;21.59;49.89;100816.34;4999061;28;45348;-73
2021/08/01 10:19:22;;;;;;;;;4.25;4.25;;;;;21.50;49.88;100795.31;5000544;28;45407;-72
2021/08/01 10:21:51;;;;;;;;;4.00;3.50;;;;;21.60;49.83;100812.63;5000258;28;45579;-72
2021/08/01 10:24:38;;;;;;;;;2.75;2.75;;;;;21.73;49.14;100835.13;5000419;28;45371;-73
2021/08/01 10:27:06;;;;;;;;;3.00;3.00;;;;;21.27;50.08;100758.06;5014962;28;45438;-73
2021/08/01 10:29:51;;;;;;;;;19.50;17.25;;;;;21.60;50.15;100799.03;4999079;28;46133;-73
2021/08/01 10:32:19;;;;;;;;;17.00;12.50;;;;;21.60;50.79;100799.91;4987800;28;48123;-72
2021/08/01 10:35:06;;;;;;;;;47.75;34.50;;;;;21.82;51.79;100822.69;4998903;28;45544;-73
2021/08/01 10:37:35;;;;;;;;;3.00;2.00;;;;;21.79;50.00;100825.66;5000463;28;45206;-73
2021/08/01 10:40:09;;;;;;;;;10.25;9.00;;;;;21.61;50.37;100787.19;4998767;28;45559;-73
2021/08/01 10:42:39;;;;;;;;;1.50;1.25;;;;;21.82;48.36;100818.13;5000092;28;45638;-72
2021/08/01 10:45:05;;;;;;;;;1.00;1.00;;;;;21.69;47.81;100790.19;5000279;28;45429;-72
2021/08/01 10:47:32;;;;;;;;;0.00;0.00;;;;;21.69;47.33;100789.31;4998680;28;45241;-72
2021/08/01 10:50:01;;;;;;;;;1.00;1.00;;;;;21.70;47.42;100797.34;4999976;28;45466;-72
2021/08/01 10:52:34;;;;;;;;;1.00;1.00;;;;;21.90;47.17;100811.19;5000244;28;45411;-72
2021/08/01 10:55:01;;;;;;;;;4.75;2.25;;;;;21.78;47.34;100788.59;4994536;28;45260;-73
2021/08/01 10:57:28;;;;;;;;;49.25;39.75;;;;;21.92;48.78;100817.38;4999487;28;45510;-77
2021/08/01 10:59:53;;;;;;;;;18.25;16.75;;;;;21.90;49.59;100814.81;4999977;28;45384;-74
2021/08/01 11:02:27;;;;;;;;;118.25;104.00;;;;;21.91;50.05;100821.09;4999054;28;45422;-75
2021/08/01 11:04:53;;;;;;;;;41.00;31.00;;;;;21.75;48.75;100794.25;4997493;28;45647;-76
2021/08/01 11:07:27;;;;;;;;;3.00;3.00;;;;;21.89;48.32;100814.91;5000029;28;45511;-76
2021/08/01 11:10:22;;;;;;;;;15.25;12.75;;;;;21.88;48.51;100813.19;4999625;28;45419;-75
2021/08/01 11:12:47;;;;;;;;;30.75;26.75;;;;;21.61;49.32;100773.63;4987337;28;46251;-76
2021/08/01 11:15:14;;;;;;;;;43.00;36.25;;;;;21.63;48.25;100761.66;4998371;28;45440;-76
2021/08/01 11:17:46;;;;;;;;;7.50;5.75;;;;;21.89;48.25;100804.91;5000172;28;45411;-75
2021/08/01 11:20:23;;;;;;;;;2.00;1.00;;;;;21.92;47.99;100810.09;4999767;28;45388;-77
2021/08/01 11:22:50;;;;;;;;;1.00;1.00;;;;;21.96;47.20;100798.00;4999802;28;45417;-79
2021/08/01 11:25:33;;;;;;;;;0.00;0.00;;;;;21.64;47.91;100746.22;4999078;28;45527;-77
2021/08/01 11:28:07;;;;;;;;;0.00;0.00;;;;;22.03;47.03;100790.22;4999408;28;45391;-74